createdAt,value
2018-03-28T00:01:53.257Z,17.48
2018-03-28T00:04:20.804Z,16.20
2018-03-28T00:06:48.225Z,17.15
2018-03-28T00:09:15.677Z,15.07
2018-03-28T00:11:43.165Z,16.02
2018-03-28T00:14:10.613Z,15.50
2018-03-28T00:16:38.097Z,15.52
2018-03-28T00:19:05.550Z,16.20
2018-03-28T00:21:33.142Z,16.00
2018-03-28T00:24:00.587Z,16.23
2018-03-28T00:26:28.086Z,14.18
2018-03-28T00:28:55.541Z,17.08
2018-03-28T00:31:23.029Z,15.45
2018-03-28T00:33:50.487Z,15.50
2018-03-28T00:36:17.969Z,15.75
2018-03-28T00:38:45.438Z,14.57
2018-03-28T00:41:12.925Z,14.73
2018-03-28T00:43:40.380Z,14.70
2018-03-28T00:46:08.001Z,16.90
2018-03-28T00:48:35.467Z,16.80
2018-03-28T00:51:14.553Z,15.80
2018-03-28T00:53:41.999Z,14.85
2018-03-28T00:56:09.478Z,15.45
2018-03-28T00:58:36.929Z,14.85
2018-03-28T01:01:04.378Z,15.15
2018-03-28T01:03:31.861Z,16.20
2018-03-28T01:05:59.309Z,16.00
2018-03-28T01:08:26.789Z,16.33
2018-03-28T01:10:54.241Z,17.65
2018-03-28T01:13:21.725Z,15.98
2018-03-28T01:15:49.262Z,16.55
2018-03-28T01:18:16.746Z,17.60
2018-03-28T01:20:44.202Z,17.70
2018-03-28T01:23:11.680Z,18.42
2018-03-28T01:25:39.131Z,17.85
2018-03-28T01:28:06.614Z,17.55
2018-03-28T01:30:34.064Z,17.50
2018-03-28T01:33:01.559Z,17.90
2018-03-28T01:35:29.015Z,19.20
2018-03-28T01:37:56.497Z,21.37
2018-03-28T01:40:24.002Z,18.02
2018-03-28T01:42:51.469Z,17.90
2018-03-28T01:45:18.929Z,19.00
2018-03-28T01:47:46.504Z,18.95
2018-03-28T01:50:14.686Z,19.42
2018-03-28T01:52:42.357Z,17.45
2018-03-28T01:55:09.813Z,18.75
2018-03-28T01:57:37.265Z,19.58
2018-03-28T02:00:05.509Z,19.12
2018-03-28T02:02:32.970Z,20.37
2018-03-28T02:05:00.450Z,20.55
2018-03-28T02:07:27.901Z,16.48
2018-03-28T02:09:55.388Z,19.15
2018-03-28T02:12:22.845Z,21.23
2018-03-28T02:14:50.327Z,19.85
2018-03-28T02:17:18.690Z,19.80
2018-03-28T02:19:47.138Z,18.75
2018-03-28T02:22:14.597Z,22.23
2018-03-28T02:24:42.085Z,23.02
2018-03-28T02:27:09.605Z,21.62
2018-03-28T02:29:37.098Z,20.95
2018-03-28T02:32:04.626Z,23.75
2018-03-28T02:34:32.163Z,21.87
2018-03-28T02:36:59.642Z,22.90
2018-03-28T02:39:27.126Z,23.83
2018-03-28T02:41:54.592Z,22.65
2018-03-28T02:44:22.422Z,21.42
2018-03-28T02:46:49.878Z,22.13
2018-03-28T02:49:17.331Z,23.70
2018-03-28T02:51:44.815Z,22.52
2018-03-28T02:54:12.270Z,24.02
2018-03-28T02:56:39.774Z,23.38
2018-03-28T02:59:07.229Z,24.42
2018-03-28T03:01:34.708Z,25.45
2018-03-28T03:04:02.167Z,24.67
2018-03-28T03:06:29.660Z,25.05
2018-03-28T03:08:57.143Z,24.92
2018-03-28T03:11:24.620Z,24.90
2018-03-28T03:13:52.069Z,25.83
2018-03-28T03:16:19.570Z,25.83
2018-03-28T03:18:47.034Z,24.52
2018-03-28T03:21:15.502Z,24.00
2018-03-28T03:23:42.953Z,23.85
2018-03-28T03:26:10.432Z,25.15
2018-03-28T03:28:37.881Z,22.40
2018-03-28T03:31:06.350Z,23.30
2018-03-28T03:33:34.701Z,23.40
2018-03-28T03:36:02.205Z,23.75
2018-03-28T03:38:29.658Z,23.40
2018-03-28T03:40:57.112Z,22.05
2018-03-28T03:43:24.610Z,21.30
2018-03-28T03:45:52.070Z,22.05
2018-03-28T03:48:19.557Z,25.30
2018-03-28T03:50:48.017Z,24.98
2018-03-28T03:53:15.505Z,24.27
2018-03-28T03:55:42.952Z,20.75
2018-03-28T03:58:10.436Z,23.23
2018-03-28T04:00:37.885Z,24.95
2018-03-28T04:03:05.365Z,23.20
2018-03-28T04:05:32.820Z,21.62
2018-03-28T04:08:00.301Z,23.27
2018-03-28T04:10:27.763Z,23.60
2018-03-28T04:12:55.280Z,22.10
2018-03-28T04:15:23.676Z,22.10
2018-03-28T04:17:51.197Z,21.10
2018-03-28T04:20:18.668Z,21.67
2018-03-28T04:22:46.182Z,19.95
2018-03-28T04:25:13.666Z,20.27
2018-03-28T04:27:41.177Z,21.92
2018-03-28T04:30:08.661Z,21.12
2018-03-28T04:32:36.141Z,23.38
2018-03-28T04:35:03.648Z,21.85
2018-03-28T04:37:31.139Z,22.25
2018-03-28T04:39:58.656Z,20.85
2018-03-28T04:42:26.133Z,21.12
2018-03-28T04:44:54.596Z,21.60
2018-03-28T04:47:22.983Z,20.67
2018-03-28T04:49:50.496Z,21.52
2018-03-28T04:52:17.972Z,21.70
2018-03-28T04:54:46.464Z,20.15
2018-03-28T04:57:13.936Z,20.02
2018-03-28T04:59:41.426Z,20.15
2018-03-28T05:02:08.881Z,19.77
2018-03-28T05:04:37.281Z,20.15
2018-03-28T05:07:04.740Z,20.75
2018-03-28T05:09:32.251Z,19.73
2018-03-28T05:12:00.668Z,20.15
2018-03-28T05:14:28.168Z,21.37
2018-03-28T05:16:55.646Z,19.87
2018-03-28T05:19:23.156Z,19.25
2018-03-28T05:21:51.600Z,19.77
2018-03-28T05:24:20.005Z,18.87
2018-03-28T05:26:47.452Z,19.12
2018-03-28T05:29:14.933Z,19.80
2018-03-28T05:31:42.383Z,19.30
2018-03-28T05:34:09.886Z,18.60
2018-03-28T05:36:37.341Z,19.60
2018-03-28T05:39:06.585Z,18.77
2018-03-28T05:41:35.068Z,17.37
2018-03-28T05:44:02.524Z,19.10
2018-03-28T05:46:30.040Z,18.12
2018-03-28T05:48:57.498Z,18.52
2018-03-28T05:51:24.990Z,18.00
2018-03-28T05:53:52.465Z,16.67
2018-03-28T05:56:19.955Z,17.60
2018-03-28T05:58:47.425Z,18.10
2018-03-28T06:01:14.918Z,17.65
2018-03-28T06:03:42.374Z,19.02
2018-03-28T06:06:09.866Z,16.17
2018-03-28T06:08:37.317Z,17.17
2018-03-28T06:11:04.895Z,14.10
2018-03-28T06:13:32.374Z,14.60
2018-03-28T06:15:59.873Z,15.15
2018-03-28T06:18:27.409Z,17.10
2018-03-28T06:20:54.885Z,15.80
2018-03-28T06:23:22.342Z,16.62
2018-03-28T06:25:49.797Z,17.60
2018-03-28T06:28:18.293Z,17.10
2018-03-28T06:30:45.745Z,15.07
2018-03-28T06:33:13.234Z,15.35
2018-03-28T06:35:40.692Z,14.35
2018-03-28T06:38:08.194Z,14.73
2018-03-28T06:40:35.641Z,15.30
2018-03-28T06:43:03.130Z,15.02
2018-03-28T06:45:30.580Z,14.30
2018-03-28T06:47:58.064Z,18.05
2018-03-28T06:50:25.513Z,15.75
2018-03-28T06:52:52.993Z,15.63
2018-03-28T06:55:21.406Z,15.35
2018-03-28T06:57:48.908Z,13.68
2018-03-28T07:00:16.445Z,13.50
2018-03-28T07:02:44.936Z,13.45
2018-03-28T07:05:12.494Z,15.93
2018-03-28T07:07:39.977Z,13.50
2018-03-28T07:10:07.433Z,16.40
2018-03-28T07:12:34.914Z,14.60
2018-03-28T07:15:02.373Z,13.57
2018-03-28T07:17:29.890Z,14.40
2018-03-28T07:19:57.344Z,12.40
2018-03-28T07:22:24.796Z,12.02
2018-03-28T07:24:52.304Z,12.10
2018-03-28T07:27:19.766Z,12.75
2018-03-28T07:29:48.291Z,11.63
2018-03-28T07:32:15.745Z,12.05
2018-03-28T07:34:43.233Z,11.80
2018-03-28T07:37:10.685Z,11.12
2018-03-28T07:39:38.179Z,11.88
2018-03-28T07:42:05.638Z,11.77
2018-03-28T07:44:33.137Z,10.35
2018-03-28T07:47:00.601Z,11.82
2018-03-28T07:49:28.089Z,10.45
2018-03-28T07:51:55.552Z,10.55
2018-03-28T07:54:23.025Z,13.20
2018-03-28T07:56:50.476Z,13.55
2018-03-28T07:59:17.969Z,11.15
2018-03-28T08:01:45.423Z,11.32
2018-03-28T08:04:12.877Z,10.18
2018-03-28T08:06:40.354Z,11.07
2018-03-28T08:09:08.002Z,11.70
2018-03-28T08:11:35.513Z,11.90
2018-03-28T08:14:02.962Z,9.50
2018-03-28T08:16:30.453Z,12.30
2018-03-28T08:18:57.908Z,13.40
2018-03-28T08:21:25.414Z,11.48
2018-03-28T08:23:52.877Z,13.62
2018-03-28T08:26:20.358Z,11.57
2018-03-28T08:28:47.826Z,11.73
2018-03-28T08:31:15.334Z,11.35
2018-03-28T08:33:42.787Z,13.45
2018-03-28T08:36:11.174Z,13.52
2018-03-28T08:38:38.630Z,13.30
2018-03-28T08:41:06.122Z,12.05
2018-03-28T08:43:35.504Z,12.95
2018-03-28T08:46:03.940Z,13.15
2018-03-28T08:48:32.398Z,14.70
2018-03-28T08:50:59.905Z,13.35
2018-03-28T08:53:28.337Z,13.70
2018-03-28T08:55:56.758Z,12.93
2018-03-28T08:58:24.210Z,13.40
2018-03-28T09:00:51.713Z,13.27
2018-03-28T09:03:20.128Z,14.55
2018-03-28T09:05:48.597Z,14.55
2018-03-28T09:08:18.034Z,14.57
2018-03-28T09:10:45.513Z,15.02
2018-03-28T09:13:13.006Z,12.98
2018-03-28T09:15:41.385Z,13.60
2018-03-28T09:18:09.806Z,13.02
2018-03-28T09:20:37.259Z,15.48
2018-03-28T09:23:04.814Z,13.38
2018-03-28T09:25:32.226Z,15.50
2018-03-28T09:27:59.717Z,15.00
2018-03-28T09:30:27.168Z,12.90
2018-03-28T09:32:54.644Z,13.50
2018-03-28T09:35:22.117Z,14.00
2018-03-28T09:37:49.644Z,13.07
2018-03-28T09:40:17.093Z,12.80
2018-03-28T09:42:44.587Z,12.60
2018-03-28T09:45:12.054Z,13.57
2018-03-28T09:47:40.494Z,13.75
2018-03-28T09:50:07.946Z,13.20
2018-03-28T09:52:35.442Z,11.98
2018-03-28T09:55:03.869Z,13.32
2018-03-28T09:57:33.317Z,14.00
2018-03-28T10:00:00.769Z,12.55
2018-03-28T10:02:31.017Z,12.52
2018-03-28T10:04:59.438Z,12.80
2018-03-28T10:07:26.885Z,12.40
2018-03-28T10:09:54.374Z,12.10
2018-03-28T10:12:21.819Z,11.80
2018-03-28T10:14:49.300Z,11.23
2018-03-28T10:17:17.800Z,11.45
2018-03-28T10:19:45.258Z,13.10
2018-03-28T10:22:12.718Z,13.65
2018-03-28T10:24:40.204Z,12.27
2018-03-28T10:27:07.681Z,12.70
2018-03-28T10:29:35.164Z,12.48
2018-03-28T10:32:02.618Z,12.25
2018-03-28T10:34:30.131Z,12.00
2018-03-28T10:36:59.528Z,10.82
2018-03-28T10:39:27.014Z,11.25
2018-03-28T10:41:56.413Z,11.50
2018-03-28T10:44:24.918Z,11.43
2018-03-28T10:46:52.377Z,10.38
2018-03-28T10:49:19.874Z,10.52
2018-03-28T10:51:47.345Z,10.27
2018-03-28T10:54:15.725Z,10.75
2018-03-28T10:56:43.204Z,9.82
2018-03-28T10:59:10.652Z,10.90
2018-03-28T11:01:38.130Z,10.68
2018-03-28T11:04:05.575Z,10.43
2018-03-28T11:06:33.052Z,10.90
2018-03-28T11:09:00.508Z,10.77
2018-03-28T11:11:28.025Z,9.68
2018-03-28T11:13:55.481Z,9.40
2018-03-28T11:16:22.981Z,11.40
2018-03-28T11:18:50.649Z,11.32
2018-03-28T11:21:18.133Z,10.20
2018-03-28T11:23:45.699Z,9.98
2018-03-28T11:26:13.188Z,10.88
2018-03-28T11:28:40.660Z,10.80
2018-03-28T11:31:08.141Z,10.98
2018-03-28T11:33:35.597Z,10.30
2018-03-28T11:36:03.080Z,11.70
2018-03-28T11:38:31.472Z,11.43
2018-03-28T11:40:58.958Z,11.35
2018-03-28T11:43:27.337Z,11.38
2018-03-28T11:45:54.793Z,11.68
2018-03-28T11:48:22.307Z,10.40
2018-03-28T11:50:50.718Z,10.75
2018-03-28T11:53:19.115Z,10.55
2018-03-28T11:55:46.569Z,11.85
2018-03-28T11:58:14.052Z,10.70
2018-03-28T12:00:41.518Z,10.73
2018-03-28T12:03:09.015Z,13.00
2018-03-28T12:05:36.490Z,11.75
2018-03-28T12:08:03.977Z,13.73
2018-03-28T12:10:32.412Z,12.60
2018-03-28T12:12:59.942Z,12.93
2018-03-28T12:15:27.401Z,13.55
2018-03-28T12:17:54.889Z,12.82
2018-03-28T12:20:22.347Z,13.80
2018-03-28T12:22:49.937Z,13.55
2018-03-28T12:25:17.531Z,13.80
2018-03-28T12:27:46.119Z,13.35
2018-03-28T12:30:13.657Z,16.40
2018-03-28T12:32:41.164Z,15.57
2018-03-28T12:35:08.649Z,16.90
2018-03-28T12:37:36.105Z,14.02
2018-03-28T12:40:04.566Z,16.58
2018-03-28T12:42:32.029Z,15.68
2018-03-28T12:44:59.541Z,15.65
2018-03-28T12:47:28.139Z,16.30
2018-03-28T12:49:55.766Z,17.40
2018-03-28T12:52:26.254Z,17.65
2018-03-28T12:54:54.737Z,17.67
2018-03-28T12:57:22.410Z,17.65
2018-03-28T12:59:49.747Z,18.35
2018-03-28T13:02:17.230Z,18.10
2018-03-28T13:04:49.095Z,17.25
2018-03-28T13:07:16.546Z,17.27
2018-03-28T13:09:44.082Z,18.92
2018-03-28T13:12:11.659Z,17.17
2018-03-28T13:14:39.327Z,17.70
2018-03-28T13:17:06.784Z,17.75
2018-03-28T13:19:34.297Z,16.83
2018-03-28T13:22:01.749Z,18.62
2018-03-28T13:24:29.261Z,20.30
2018-03-28T13:26:56.716Z,18.27
2018-03-28T13:29:24.178Z,19.05
2018-03-28T13:31:51.661Z,17.15
2018-03-28T13:34:19.173Z,17.30
2018-03-28T13:36:46.682Z,15.45
2018-03-28T13:39:15.131Z,15.80
2018-03-28T13:41:42.617Z,16.67
2018-03-28T13:44:12.044Z,18.25
2018-03-28T13:46:39.538Z,17.33
2018-03-28T13:49:07.016Z,15.60
2018-03-28T13:51:35.464Z,15.05
2018-03-28T13:54:02.921Z,16.50
2018-03-28T13:56:31.391Z,16.17
2018-03-28T13:58:58.859Z,16.48
2018-03-28T14:01:26.381Z,16.35
2018-03-28T14:03:54.753Z,16.20
2018-03-28T14:06:22.244Z,16.73
2018-03-28T14:08:49.718Z,16.12
2018-03-28T14:11:17.218Z,18.17
2018-03-28T14:13:44.670Z,16.90
2018-03-28T14:16:13.101Z,17.55
2018-03-28T14:18:40.618Z,17.02
2018-03-28T14:21:08.069Z,18.15
2018-03-28T14:23:35.526Z,21.17
2018-03-28T14:26:03.050Z,21.05
2018-03-28T14:28:30.535Z,19.45
2018-03-28T14:30:58.006Z,20.37
2018-03-28T14:33:25.489Z,24.48
2018-03-28T14:35:52.953Z,22.10
2018-03-28T14:38:21.428Z,20.98
2018-03-28T14:40:49.750Z,22.75
2018-03-28T14:43:17.229Z,23.02
2018-03-28T14:45:45.650Z,22.65
2018-03-28T14:48:14.130Z,21.75
2018-03-28T14:50:42.578Z,21.67
2018-03-28T14:53:10.094Z,24.08
2018-03-28T14:55:37.535Z,22.55
2018-03-28T14:58:05.235Z,21.92
2018-03-28T15:00:32.687Z,21.73
2018-03-28T15:03:00.190Z,22.73
2018-03-28T15:05:28.650Z,24.67
2018-03-28T15:07:57.016Z,20.80
2018-03-28T15:10:24.476Z,22.42
2018-03-28T15:12:52.896Z,22.70
2018-03-28T15:15:21.345Z,22.40
2018-03-28T15:17:48.837Z,22.55
2018-03-28T15:20:16.383Z,24.10
2018-03-28T15:22:43.837Z,23.35
2018-03-28T15:25:11.342Z,24.75
2018-03-28T15:27:38.793Z,21.90
2018-03-28T15:30:06.281Z,20.50
2018-03-28T15:32:33.742Z,23.90
2018-03-28T15:35:01.224Z,23.02
2018-03-28T15:37:29.684Z,22.75
2018-03-28T15:39:57.180Z,24.42
2018-03-28T15:42:24.646Z,25.88
2018-03-28T15:44:52.143Z,24.15
2018-03-28T15:47:19.597Z,24.85
2018-03-28T15:49:47.080Z,23.45
2018-03-28T15:52:14.537Z,24.80
2018-03-28T15:54:42.034Z,23.90
2018-03-28T15:57:09.480Z,24.70
2018-03-28T15:59:37.909Z,26.10
2018-03-28T16:02:05.357Z,22.15
2018-03-28T16:04:33.797Z,23.65
2018-03-28T16:07:02.233Z,20.15
2018-03-28T16:09:30.652Z,21.20
2018-03-28T16:11:58.117Z,21.08
2018-03-28T16:14:25.572Z,19.42
2018-03-28T16:16:53.121Z,19.12
2018-03-28T16:19:20.573Z,19.92
2018-03-28T16:21:51.352Z,17.58
2018-03-28T16:24:18.815Z,16.08
2018-03-28T16:26:46.309Z,17.33
2018-03-28T16:29:13.757Z,17.67
2018-03-28T16:31:41.298Z,17.42
2018-03-28T16:34:09.701Z,17.00
2018-03-28T16:36:37.250Z,16.08
2018-03-28T16:39:04.690Z,17.12
2018-03-28T16:41:32.165Z,15.65
2018-03-28T16:43:59.618Z,15.63
2018-03-28T16:46:27.097Z,15.90
2018-03-28T16:48:57.617Z,14.80
2018-03-28T16:51:25.107Z,17.33
2018-03-28T16:53:52.561Z,15.60
2018-03-28T16:56:20.064Z,17.27
2018-03-28T16:58:49.472Z,15.40
2018-03-28T17:01:16.970Z,15.23
2018-03-28T17:03:44.456Z,14.52
2018-03-28T17:06:11.972Z,14.65
2018-03-28T17:08:43.137Z,16.15
2018-03-28T17:11:10.587Z,15.90
2018-03-28T17:13:38.145Z,15.20
2018-03-28T17:16:05.600Z,13.70
2018-03-28T17:18:33.084Z,13.23
2018-03-28T17:21:00.618Z,16.52
2018-03-28T17:23:28.164Z,15.98
2018-03-28T17:25:56.612Z,16.77
2018-03-28T17:28:25.037Z,17.40
2018-03-28T17:30:52.589Z,17.42
2018-03-28T17:33:20.073Z,15.48
2018-03-28T17:35:47.525Z,19.30
2018-03-28T17:38:15.005Z,18.48
2018-03-28T17:40:43.426Z,16.75
2018-03-28T17:43:11.920Z,19.12
2018-03-28T17:45:40.365Z,20.75
2018-03-28T17:48:07.854Z,20.88
2018-03-28T17:50:35.321Z,21.37
2018-03-28T17:53:03.825Z,21.80
2018-03-28T17:55:31.270Z,22.37
2018-03-28T17:57:58.769Z,22.98
2018-03-28T18:03:28.552Z,24.15
2018-03-28T18:05:56.033Z,23.50
2018-03-28T18:08:23.777Z,23.48
2018-03-28T18:10:51.238Z,24.70
2018-03-28T18:13:18.729Z,24.85
2018-03-28T18:15:46.184Z,22.15
2018-03-28T18:18:13.638Z,23.95
2018-03-28T18:20:41.117Z,23.58
2018-03-28T18:23:09.490Z,25.52
2018-03-28T18:25:38.954Z,24.08
2018-03-28T18:28:06.500Z,22.13
2018-03-28T18:33:05.576Z,27.77
2018-03-28T18:35:33.066Z,28.83
2018-03-28T18:38:00.519Z,26.15
2018-03-28T18:40:28.063Z,24.95
2018-03-28T18:42:55.494Z,26.35
2018-03-28T18:45:22.977Z,27.40
2018-03-28T18:47:50.437Z,27.42
2018-03-28T18:50:17.935Z,29.27
2018-03-28T18:52:45.387Z,26.70
2018-03-28T18:55:12.873Z,29.20
2018-03-28T18:57:40.331Z,28.30
2018-03-28T19:00:07.806Z,29.63
2018-03-28T19:02:35.253Z,27.83
2018-03-28T19:05:02.741Z,28.65
2018-03-28T19:07:30.227Z,27.42
2018-03-28T19:09:57.686Z,27.70
2018-03-28T19:12:25.175Z,28.45
2018-03-28T19:14:52.757Z,27.62
2018-03-28T19:17:20.252Z,28.62
2018-03-28T19:19:47.706Z,27.27
2018-03-28T19:22:15.192Z,28.60
2018-03-28T19:24:43.551Z,27.67
2018-03-28T19:27:11.045Z,26.33
2018-03-28T19:29:38.513Z,29.00
2018-03-28T19:32:06.000Z,28.10
2018-03-28T19:34:33.452Z,25.45
2018-03-28T19:37:00.949Z,26.90
2018-03-28T19:39:29.378Z,28.80
2018-03-28T19:41:56.885Z,26.98
2018-03-28T19:44:24.356Z,27.95
2018-03-28T19:46:51.840Z,27.10
2018-03-28T19:49:19.297Z,27.90
2018-03-28T19:51:46.787Z,29.70
2018-03-28T19:54:15.184Z,26.77
2018-03-28T19:56:43.658Z,26.45
2018-03-28T19:59:11.113Z,26.65
2018-03-28T20:01:38.605Z,25.98
2018-03-28T20:04:06.061Z,29.33
2018-03-28T20:06:33.519Z,29.00
2018-03-28T20:09:01.974Z,27.55
2018-03-28T20:11:29.447Z,26.35
2018-03-28T20:13:56.933Z,30.00
2018-03-28T20:16:24.401Z,26.40
2018-03-28T20:18:51.889Z,26.17
2018-03-28T20:21:19.387Z,28.00
2018-03-28T20:23:47.832Z,26.42
2018-03-28T20:26:15.281Z,29.20
2018-03-28T20:28:42.761Z,27.85
2018-03-28T20:31:10.212Z,28.75
2018-03-28T20:33:37.753Z,29.02
2018-03-28T20:36:05.309Z,33.28
2018-03-28T20:38:32.785Z,29.20
2018-03-28T20:41:00.241Z,31.50
2018-03-28T20:43:27.728Z,27.52
2018-03-28T20:45:55.179Z,28.95
2018-03-28T20:48:22.877Z,28.30
2018-03-28T20:50:50.373Z,30.27
2018-03-28T20:53:17.848Z,30.10
2018-03-28T20:55:45.322Z,29.27
2018-03-28T20:58:12.809Z,29.63
2018-03-28T21:00:40.283Z,33.30
2018-03-28T21:03:07.854Z,28.02
2018-03-28T21:05:35.316Z,31.95
2018-03-28T21:08:02.820Z,31.30
2018-03-28T21:10:31.214Z,29.15
2018-03-28T21:12:58.681Z,30.80
2018-03-28T21:15:26.181Z,31.48
2018-03-28T21:17:53.644Z,30.88
2018-03-28T21:20:22.110Z,31.77
2018-03-28T21:22:49.579Z,30.75
2018-03-28T21:25:17.070Z,33.45
2018-03-28T21:27:44.539Z,37.10
2018-03-28T21:30:12.116Z,37.05
2018-03-28T21:32:39.586Z,40.53
2018-03-28T21:35:07.194Z,38.58
2018-03-28T21:37:34.646Z,41.42
2018-03-28T21:40:02.149Z,39.70
2018-03-28T21:42:29.605Z,42.78
2018-03-28T21:44:57.137Z,39.60
2018-03-28T21:47:24.589Z,41.00
2018-03-28T21:49:52.081Z,42.38
2018-03-28T21:52:19.539Z,43.58
2018-03-28T21:54:47.039Z,43.33
2018-03-28T21:57:14.502Z,39.33
2018-03-28T21:59:42.026Z,40.97
2018-03-28T22:02:09.525Z,40.63
2018-03-28T22:04:37.034Z,44.00
2018-03-28T22:07:04.531Z,45.08
2018-03-28T22:09:31.996Z,42.35
2018-03-28T22:11:59.510Z,41.17
2018-03-28T22:14:27.008Z,37.92
2018-03-28T22:16:54.502Z,41.35
2018-03-28T22:19:21.959Z,40.78
2018-03-28T22:21:49.509Z,39.33
2018-03-28T22:24:16.987Z,39.85
2018-03-28T22:26:44.477Z,43.67
2018-03-28T22:29:11.927Z,39.53
2018-03-28T22:31:39.402Z,40.38
2018-03-28T22:34:06.849Z,35.40
2018-03-28T22:36:34.321Z,38.60
2018-03-28T22:39:01.776Z,38.10
2018-03-28T22:41:29.331Z,39.83
2018-03-28T22:43:56.742Z,40.85
2018-03-28T22:46:25.321Z,43.95
2018-03-28T22:48:52.835Z,42.53
2018-03-28T22:51:20.332Z,43.95
2018-03-28T22:53:47.775Z,38.78
2018-03-28T22:56:15.249Z,38.30
2018-03-28T22:58:42.692Z,40.65
2018-03-28T23:01:10.236Z,37.58
2018-03-28T23:03:37.789Z,37.63
2018-03-28T23:06:05.253Z,41.53
2018-03-28T23:08:32.731Z,40.22
2018-03-28T23:11:00.233Z,39.00
2018-03-28T23:13:27.720Z,39.95
2018-03-28T23:15:55.156Z,37.17
2018-03-28T23:18:22.630Z,32.38
2018-03-28T23:20:50.096Z,35.40
2018-03-28T23:23:17.610Z,34.53
2018-03-28T23:25:45.062Z,33.55
2018-03-28T23:28:12.549Z,34.50
2018-03-28T23:30:40.009Z,34.28
2018-03-28T23:33:07.489Z,36.97
2018-03-28T23:35:34.934Z,37.97
2018-03-28T23:38:04.390Z,35.90
2018-03-28T23:40:31.893Z,34.80
2018-03-28T23:42:59.390Z,37.03
2018-03-28T23:45:26.862Z,34.33
2018-03-28T23:47:54.389Z,34.45
2018-03-28T23:50:21.837Z,33.67
2018-03-28T23:52:49.291Z,34.97
2018-03-28T23:55:16.829Z,33.88
2018-03-28T23:57:44.269Z,33.70
